createdAt,value
2023-05-15T00:01:19.248Z,97816.25
2023-05-15T00:03:24.290Z,97821.84
2023-05-15T00:05:29.286Z,97817.81
2023-05-15T00:07:36.698Z,97813.94
2023-05-15T00:09:41.583Z,97810.47
2023-05-15T00:11:46.534Z,97813.94
2023-05-15T00:13:51.617Z,97814.56
2023-05-15T00:15:59.252Z,97815.53
2023-05-15T00:18:04.191Z,97816.34
2023-05-15T00:20:10.516Z,97818.69
2023-05-15T00:22:15.467Z,97820.19
2023-05-15T00:24:20.309Z,97818.53
2023-05-15T00:26:26.884Z,97824.47
2023-05-15T00:28:31.779Z,97817.28
2023-05-15T00:30:36.682Z,97814.47
2023-05-15T00:32:44.433Z,97812.97
2023-05-15T00:34:49.319Z,97820.22
2023-05-15T00:36:54.288Z,97817.44
2023-05-15T00:38:59.161Z,97815.22
2023-05-15T00:41:04.778Z,97813.94
2023-05-15T00:43:10.976Z,97813.38
2023-05-15T00:45:17.117Z,97811.91
2023-05-15T00:47:25.291Z,97810.22
2023-05-15T00:49:35.813Z,97805.16
2023-05-15T00:51:41.489Z,97806.13
2023-05-15T00:53:46.676Z,97813.41
2023-05-15T00:55:53.248Z,97808.19
2023-05-15T00:58:00.595Z,97812.66
2023-05-15T01:00:10.588Z,97813.41
2023-05-15T01:02:18.848Z,97813.84
2023-05-15T01:04:23.833Z,97811.91
2023-05-15T01:06:33.165Z,97806.28
2023-05-15T01:08:45.105Z,97809.53
2023-05-15T01:10:51.420Z,97808.44
2023-05-15T01:12:58.527Z,97815.78
2023-05-15T01:15:03.531Z,97814.56
2023-05-15T01:17:08.453Z,97814.19
2023-05-15T01:19:13.497Z,97819.69
2023-05-15T01:21:59.303Z,97814.97
2023-05-15T01:24:14.498Z,97814.28
2023-05-15T01:26:47.225Z,97815.97
2023-05-15T01:29:02.126Z,97818.88
2023-05-15T01:31:13.609Z,97819.81
2023-05-15T01:33:23.976Z,97818.97
2023-05-15T01:35:35.898Z,97820.72
2023-05-15T01:37:50.121Z,97819.50
2023-05-15T01:39:58.706Z,97812.81
2023-05-15T01:42:08.320Z,97811.31
2023-05-15T01:44:20.393Z,97815.34
2023-05-15T01:46:27.989Z,97818.22
2023-05-15T01:48:36.718Z,97819.81
2023-05-15T01:50:46.517Z,97813.38
2023-05-15T01:52:55.436Z,97813.06
2023-05-15T01:55:01.389Z,97805.03
2023-05-15T01:57:07.551Z,97816.06
2023-05-15T01:59:17.541Z,97818.78
2023-05-15T02:01:22.828Z,97818.31
2023-05-15T02:03:29.034Z,97822.09
2023-05-15T02:05:34.669Z,97822.94
2023-05-15T02:07:40.006Z,97818.09
2023-05-15T02:09:46.211Z,97821.34
2023-05-15T02:11:51.566Z,97818.56
2023-05-15T02:13:59.817Z,97817.63
2023-05-15T02:16:07.852Z,97816.19
2023-05-15T02:18:12.907Z,97813.22
2023-05-15T02:20:17.848Z,97814.91
2023-05-15T02:22:22.750Z,97813.13
2023-05-15T02:24:27.806Z,97813.41
2023-05-15T02:26:40.191Z,97811.63
2023-05-15T02:28:53.350Z,97822.28
2023-05-15T02:31:03.535Z,97817.41
2023-05-15T02:33:22.598Z,97819.34
2023-05-15T02:35:35.103Z,97822.25
2023-05-15T02:37:45.093Z,97820.47
2023-05-15T02:39:54.533Z,97815.31
2023-05-15T02:42:00.339Z,97818.78
2023-05-15T02:44:06.314Z,97822.59
2023-05-15T02:46:11.515Z,97812.84
2023-05-15T02:48:19.753Z,97811.81
2023-05-15T02:50:25.649Z,97801.38
2023-05-15T02:52:31.381Z,97809.03
2023-05-15T02:54:36.358Z,97802.78
2023-05-15T02:56:41.259Z,97804.75
2023-05-15T02:58:46.226Z,97802.03
2023-05-15T03:00:51.255Z,97804.75
2023-05-15T03:02:56.273Z,97800.19
2023-05-15T03:05:03.832Z,97808.31
2023-05-15T03:07:08.771Z,97804.44
2023-05-15T03:09:13.653Z,97800.41
2023-05-15T03:11:19.449Z,97807.75
2023-05-15T03:13:24.388Z,97810.53
2023-05-15T03:15:29.385Z,97811.66
2023-05-15T03:17:37.015Z,97802.47
2023-05-15T03:19:41.978Z,97804.41
2023-05-15T03:21:49.540Z,97805.06
2023-05-15T03:23:54.538Z,97815.78
2023-05-15T03:25:59.820Z,97797.22
2023-05-15T03:28:04.866Z,97802.03
2023-05-15T03:30:11.306Z,97802.19
2023-05-15T03:32:16.201Z,97803.53
2023-05-15T03:34:21.185Z,97799.22
2023-05-15T03:36:26.108Z,97798.66
2023-05-15T03:38:33.573Z,97802.09
2023-05-15T03:40:41.214Z,97808.84
2023-05-15T03:42:46.099Z,97810.50
2023-05-15T03:44:51.089Z,97815.41
2023-05-15T03:46:56.249Z,97805.78
2023-05-15T03:49:01.332Z,97811.78
2023-05-15T03:51:06.625Z,97808.75
2023-05-15T03:53:11.518Z,97809.56
2023-05-15T03:55:19.221Z,97803.78
2023-05-15T03:57:24.309Z,97805.41
2023-05-15T03:59:29.192Z,97801.03
2023-05-15T04:01:39.311Z,97803.88
2023-05-15T04:03:52.282Z,97797.03
2023-05-15T04:05:57.196Z,97794.75
2023-05-15T04:08:02.129Z,97789.94
2023-05-15T04:10:07.874Z,97794.75
2023-05-15T04:12:15.352Z,97792.72
2023-05-15T04:14:20.413Z,97792.44
2023-05-15T04:16:25.315Z,97797.41
2023-05-15T04:18:30.350Z,97795.56
2023-05-15T04:20:37.721Z,97802.44
2023-05-15T04:22:43.811Z,97794.50
2023-05-15T04:24:48.774Z,97795.28
2023-05-15T04:26:53.767Z,97794.25
2023-05-15T04:29:04.341Z,97794.91
2023-05-15T04:31:09.784Z,97796.69
2023-05-15T04:33:14.715Z,97788.56
2023-05-15T04:35:19.680Z,97781.75
2023-05-15T04:37:24.711Z,97783.22
2023-05-15T04:39:29.723Z,97785.84
2023-05-15T04:41:34.638Z,97786.69
2023-05-15T04:43:41.193Z,97788.19
2023-05-15T04:45:48.951Z,97785.47
2023-05-15T04:47:54.058Z,97783.41
2023-05-15T04:49:59.308Z,97788.03
2023-05-15T04:52:04.147Z,97784.59
2023-05-15T04:54:09.034Z,97787.78
2023-05-15T04:56:13.998Z,97787.72
2023-05-15T04:58:19.044Z,97778.19
2023-05-15T05:00:23.907Z,97779.97
2023-05-15T05:02:31.408Z,97778.59
2023-05-15T05:04:36.346Z,97777.13
2023-05-15T05:06:41.307Z,97777.31
2023-05-15T05:08:46.193Z,97778.56
2023-05-15T05:10:51.178Z,97773.63
2023-05-15T05:12:56.090Z,97781.47
2023-05-15T05:15:01.001Z,97786.41
2023-05-15T05:17:06.400Z,97781.53
2023-05-15T05:19:14.113Z,97778.81
2023-05-15T05:21:19.064Z,97766.69
2023-05-15T05:23:23.959Z,97766.81
2023-05-15T05:25:44.713Z,97758.84
2023-05-15T05:27:49.576Z,97752.22
2023-05-15T05:29:55.501Z,97749.31
2023-05-15T05:32:00.810Z,97740.91
2023-05-15T05:34:05.903Z,97742.69
2023-05-15T05:36:13.633Z,97744.38
2023-05-15T05:38:18.514Z,97748.31
2023-05-15T05:40:23.861Z,97752.22
2023-05-15T05:42:28.759Z,97749.31
2023-05-15T05:44:34.713Z,97749.22
2023-05-15T05:46:41.761Z,97748.03
2023-05-15T05:48:46.702Z,97737.56
2023-05-15T05:50:51.658Z,97746.22
2023-05-15T05:52:59.147Z,97748.84
2023-05-15T05:55:04.058Z,97752.38
2023-05-15T05:57:09.412Z,97742.13
2023-05-15T05:59:14.501Z,97747.56
2023-05-15T06:01:19.441Z,97749.72
2023-05-15T06:03:26.124Z,97749.94
2023-05-15T06:05:31.610Z,97753.47
2023-05-15T06:07:37.054Z,97749.66
2023-05-15T06:09:46.133Z,97748.47
2023-05-15T06:11:51.169Z,97748.66
2023-05-15T06:13:56.200Z,97754.38
2023-05-15T06:16:01.746Z,97750.31
2023-05-15T06:18:06.927Z,97751.00
2023-05-15T06:20:12.280Z,97744.63
2023-05-15T06:22:17.305Z,97749.81
2023-05-15T06:24:22.243Z,97745.88
2023-05-15T06:26:29.775Z,97748.72
2023-05-15T06:28:34.641Z,97743.63
2023-05-15T06:30:42.873Z,97743.72
2023-05-15T06:32:47.794Z,97746.66
2023-05-15T06:34:52.882Z,97741.88
2023-05-15T06:36:57.652Z,97738.22
2023-05-15T06:39:02.616Z,97738.94
2023-05-15T06:41:07.817Z,97737.31
2023-05-15T06:43:15.076Z,97741.03
2023-05-15T06:45:20.211Z,97734.50
2023-05-15T06:47:25.010Z,97732.97
2023-05-15T06:49:30.295Z,97733.75
2023-05-15T06:51:34.937Z,97735.13
2023-05-15T06:53:43.158Z,97724.75
2023-05-15T06:55:48.139Z,97729.19
2023-05-15T06:57:53.482Z,97722.06
2023-05-15T07:00:01.016Z,97720.78
2023-05-15T07:02:06.765Z,97725.09
2023-05-15T07:04:13.905Z,97726.03
2023-05-15T07:06:18.835Z,97732.03
2023-05-15T07:08:23.772Z,97721.41
2023-05-15T07:10:28.858Z,97714.84
2023-05-15T07:12:34.524Z,97713.69
2023-05-15T07:14:39.718Z,97710.72
2023-05-15T07:16:47.379Z,97701.91
2023-05-15T07:18:52.449Z,97701.00
2023-05-15T07:20:57.598Z,97689.97
2023-05-15T07:23:02.511Z,97692.31
2023-05-15T07:25:08.452Z,97688.75
2023-05-15T07:27:13.380Z,97699.34
2023-05-15T07:29:18.239Z,97702.81
2023-05-15T07:31:23.737Z,97700.00
2023-05-15T07:33:31.298Z,97697.44
2023-05-15T07:35:36.198Z,97700.69
2023-05-15T07:37:41.711Z,97692.34
2023-05-15T07:39:46.818Z,97684.50
2023-05-15T07:41:51.725Z,97684.75
2023-05-15T07:43:56.658Z,97677.53
2023-05-15T07:46:04.377Z,97674.06
2023-05-15T07:48:20.082Z,97676.22
2023-05-15T07:50:27.306Z,97673.59
2023-05-15T07:52:32.255Z,97670.13
2023-05-15T07:54:37.214Z,97672.50
2023-05-15T07:56:45.100Z,97674.28
2023-05-15T07:58:50.164Z,97670.31
2023-05-15T08:00:54.854Z,97672.28
2023-05-15T08:02:59.753Z,97675.47
2023-05-15T08:05:05.588Z,97684.06
2023-05-15T08:07:13.096Z,97681.44
2023-05-15T08:09:18.086Z,97680.03
2023-05-15T08:11:22.994Z,97671.06
2023-05-15T08:13:28.912Z,97665.44
2023-05-15T08:15:33.932Z,97670.22
2023-05-15T08:17:39.220Z,97676.06
2023-05-15T08:19:44.118Z,97663.78
2023-05-15T08:21:49.020Z,97667.84
2023-05-15T08:23:56.778Z,97671.78
2023-05-15T08:26:01.985Z,97667.59
2023-05-15T08:28:07.481Z,97664.00
2023-05-15T08:30:13.493Z,97664.84
2023-05-15T08:32:18.434Z,97665.88
2023-05-15T08:34:23.287Z,97670.53
2023-05-15T08:36:28.346Z,97659.53
2023-05-15T08:38:33.045Z,97655.97
2023-05-15T08:40:40.788Z,97658.09
2023-05-15T08:42:48.232Z,97651.59
2023-05-15T08:44:53.628Z,97650.13
2023-05-15T08:46:59.652Z,97640.94
2023-05-15T08:49:09.045Z,97646.75
2023-05-15T08:51:14.572Z,97649.03
2023-05-15T08:53:19.832Z,97646.00
2023-05-15T08:55:25.318Z,97646.59
2023-05-15T08:57:34.534Z,97640.81
2023-05-15T08:59:40.559Z,97648.13
2023-05-15T09:01:45.901Z,97651.09
2023-05-15T09:03:51.118Z,97646.72
2023-05-15T09:05:57.517Z,97650.97
2023-05-15T09:08:04.069Z,97645.50
2023-05-15T09:10:11.316Z,97641.72
2023-05-15T09:12:18.529Z,97631.66
2023-05-15T09:14:26.089Z,97631.25
2023-05-15T09:16:31.072Z,97626.84
2023-05-15T09:18:35.894Z,97628.84
2023-05-15T09:20:41.369Z,97623.41
2023-05-15T09:22:46.366Z,97632.31
2023-05-15T09:24:53.209Z,97631.56
2023-05-15T09:27:06.507Z,97626.78
2023-05-15T09:29:12.150Z,97623.31
2023-05-15T09:31:23.134Z,97634.03
2023-05-15T09:33:31.624Z,97632.03
2023-05-15T09:35:37.862Z,97623.50
2023-05-15T09:37:44.025Z,97621.66
2023-05-15T09:39:48.692Z,97620.25
2023-05-15T09:41:53.732Z,97622.91
2023-05-15T09:43:59.166Z,97621.66
2023-05-15T09:46:04.354Z,97627.41
2023-05-15T09:48:13.114Z,97623.16
2023-05-15T09:50:24.403Z,97614.94
2023-05-15T09:52:30.723Z,97612.63
2023-05-15T09:54:39.246Z,97615.84
2023-05-15T09:56:44.484Z,97626.94
2023-05-15T09:58:56.341Z,97620.47
2023-05-15T10:01:04.456Z,97623.63
2023-05-15T10:03:13.448Z,97635.28
2023-05-15T10:05:21.531Z,97641.94
2023-05-15T10:07:31.891Z,97650.19
2023-05-15T10:09:36.879Z,97651.59
2023-05-15T10:11:43.800Z,97640.53
2023-05-15T10:13:49.004Z,97641.00
2023-05-15T10:15:55.759Z,97644.97
2023-05-15T10:18:01.765Z,97633.38
2023-05-15T10:20:11.200Z,97643.06
2023-05-15T10:22:19.157Z,97655.88
2023-05-15T10:24:24.823Z,97706.94
2023-05-15T10:26:36.373Z,97746.41
2023-05-15T10:28:44.798Z,97831.31
2023-05-15T10:30:51.459Z,97936.91
2023-05-15T10:32:59.148Z,97945.19
2023-05-15T10:35:06.151Z,98698.63
2023-05-15T10:37:16.018Z,97905.72
2023-05-15T10:39:22.246Z,97901.25
2023-05-15T10:41:29.433Z,97878.06
2023-05-15T10:43:36.541Z,97879.13
2023-05-15T10:45:42.645Z,97872.13
2023-05-15T10:47:48.618Z,97865.47
2023-05-15T10:49:53.634Z,97869.28
2023-05-15T10:51:58.993Z,97864.97
2023-05-15T10:54:07.243Z,97861.22
2023-05-15T10:56:16.791Z,97853.34
2023-05-15T10:58:25.779Z,97853.97
2023-05-15T11:00:33.067Z,97858.91
2023-05-15T11:02:42.484Z,97862.50
2023-05-15T11:04:47.741Z,97860.94
2023-05-15T11:06:53.750Z,97866.03
2023-05-15T11:09:48.491Z,97867.31
2023-05-15T11:12:00.485Z,97864.69
2023-05-15T11:14:20.293Z,97869.91
2023-05-15T11:16:58.249Z,97863.84
2023-05-15T11:19:03.823Z,97873.81
2023-05-15T11:21:10.742Z,97873.41
2023-05-15T11:23:16.390Z,97871.84
2023-05-15T11:25:21.583Z,97861.31
2023-05-15T11:27:34.710Z,97859.94
2023-05-15T11:29:39.717Z,97850.66
2023-05-15T11:31:44.701Z,97848.38
2023-05-15T11:33:53.900Z,97847.97
2023-05-15T11:36:02.087Z,97838.19
2023-05-15T11:38:13.920Z,97843.88
2023-05-15T11:40:23.731Z,97842.47
2023-05-15T11:42:31.495Z,97837.19
2023-05-15T11:44:36.534Z,97833.91
2023-05-15T11:46:44.902Z,97831.88
2023-05-15T11:48:50.663Z,97829.94
2023-05-15T11:50:56.135Z,97825.13
2023-05-15T11:53:01.358Z,97828.22
2023-05-15T11:55:06.887Z,97827.22
2023-05-15T11:57:11.876Z,97827.03
2023-05-15T11:59:19.460Z,97822.22
2023-05-15T12:01:24.541Z,97826.19
2023-05-15T12:03:30.386Z,97831.63
2023-05-15T12:05:35.958Z,97832.97
2023-05-15T12:07:41.931Z,97838.66
2023-05-15T12:09:47.240Z,97837.22
2023-05-15T12:11:53.903Z,97834.47
2023-05-15T12:13:59.238Z,97844.06
2023-05-15T12:16:07.840Z,97850.16
2023-05-15T12:18:13.169Z,97851.09
2023-05-15T12:20:20.756Z,97851.19
2023-05-15T12:22:25.700Z,97850.44
2023-05-15T12:24:30.885Z,97871.78
2023-05-15T12:26:36.213Z,97882.06
2023-05-15T12:28:41.527Z,97889.47
2023-05-15T12:30:47.507Z,97909.53
2023-05-15T12:32:55.240Z,97928.03
2023-05-15T12:35:00.598Z,97978.75
2023-05-15T12:37:06.037Z,98017.06
2023-05-15T12:39:11.348Z,97988.72
2023-05-15T12:41:16.387Z,97928.75
2023-05-15T12:43:21.277Z,97895.22
2023-05-15T12:45:29.186Z,97895.84
2023-05-15T12:47:34.701Z,97856.81
2023-05-15T12:49:43.803Z,97815.53
2023-05-15T12:51:48.794Z,97823.91
2023-05-15T12:53:55.850Z,97823.56
2023-05-15T12:56:00.971Z,97806.72
2023-05-15T12:58:07.593Z,97587.16
2023-05-15T13:00:14.717Z,97585.69
2023-05-15T13:02:23.059Z,97624.22
2023-05-15T13:04:28.626Z,97592.28
2023-05-15T13:06:45.619Z,97584.66
2023-05-15T13:08:51.235Z,97562.75
2023-05-15T13:10:59.850Z,97539.22
2023-05-15T13:13:05.098Z,97549.25
2023-05-15T13:15:11.275Z,97547.13
2023-05-15T13:17:17.841Z,97537.38
2023-05-15T13:19:22.801Z,97548.09
2023-05-15T13:21:27.616Z,97541.56
2023-05-15T13:23:35.194Z,97542.25
2023-05-15T13:25:40.674Z,97545.03
2023-05-15T13:27:45.871Z,97538.66
2023-05-15T13:29:51.238Z,97537.09
2023-05-15T13:31:56.255Z,97531.16
2023-05-15T13:34:01.105Z,97532.13
2023-05-15T13:36:06.219Z,97530.03
2023-05-15T13:38:11.856Z,97528.47
2023-05-15T13:40:20.224Z,97521.88
2023-05-15T13:42:25.166Z,97517.53
2023-05-15T13:44:30.072Z,97524.25
2023-05-15T13:46:35.097Z,97525.97
2023-05-15T13:48:40.037Z,97533.72
2023-05-15T13:50:45.896Z,97541.84
2023-05-15T13:52:50.776Z,97532.47
2023-05-15T13:54:55.759Z,97527.47
2023-05-15T13:57:03.498Z,97532.34
2023-05-15T13:59:08.458Z,97529.22
2023-05-15T14:01:13.222Z,97534.16
2023-05-15T14:03:18.287Z,97525.78
2023-05-15T14:05:23.007Z,97528.38
2023-05-15T14:07:28.577Z,97522.06
2023-05-15T14:09:33.755Z,97526.09
2023-05-15T14:11:42.160Z,97522.50
2023-05-15T14:13:49.744Z,97522.03
2023-05-15T14:15:55.117Z,97531.94
2023-05-15T14:18:00.020Z,97531.63
2023-05-15T14:20:05.339Z,97530.50
2023-05-15T14:22:10.251Z,97531.41
2023-05-15T14:24:15.078Z,97529.91
2023-05-15T14:26:19.996Z,97535.28
2023-05-15T14:28:24.662Z,97533.03
2023-05-15T14:30:32.246Z,97538.13
2023-05-15T14:32:37.236Z,97532.00
2023-05-15T14:34:41.929Z,97532.25
2023-05-15T14:36:46.974Z,97530.19
2023-05-15T14:38:54.717Z,97536.69
2023-05-15T14:40:59.702Z,97540.78
2023-05-15T14:43:04.649Z,97540.31
2023-05-15T14:45:09.875Z,97536.53
2023-05-15T14:47:17.488Z,97534.25
2023-05-15T14:49:22.500Z,97524.28
2023-05-15T14:51:27.425Z,97526.50
2023-05-15T14:53:32.191Z,97530.53
2023-05-15T14:55:37.254Z,97526.16
2023-05-15T14:57:41.991Z,97526.75
2023-05-15T14:59:46.846Z,97527.88
2023-05-15T15:01:52.003Z,97524.78
2023-05-15T15:03:59.680Z,97525.59
2023-05-15T15:06:04.643Z,97530.19
2023-05-15T15:08:11.916Z,97526.31
2023-05-15T15:10:19.181Z,97539.25
2023-05-15T15:12:24.108Z,97538.06
2023-05-15T15:14:29.154Z,97545.25
2023-05-15T15:16:33.905Z,97546.63
2023-05-15T15:18:40.151Z,97543.00
2023-05-15T15:20:47.678Z,97547.38
2023-05-15T15:22:52.661Z,97547.03
2023-05-15T15:24:59.855Z,97545.31
2023-05-15T15:27:05.860Z,97542.94
2023-05-15T15:29:10.749Z,97542.34
2023-05-15T15:31:15.993Z,97534.44
2023-05-15T15:33:20.941Z,97536.34
2023-05-15T15:35:26.105Z,97534.84
2023-05-15T15:37:36.922Z,97543.19
2023-05-15T15:39:41.993Z,97537.31
2023-05-15T15:41:46.826Z,97536.91
2023-05-15T15:43:51.817Z,97541.66
2023-05-15T15:45:56.675Z,97542.88
2023-05-15T15:48:01.781Z,97544.00
2023-05-15T15:50:06.557Z,97540.53
2023-05-15T15:52:11.478Z,97537.81
2023-05-15T15:54:18.754Z,97547.47
2023-05-15T15:56:24.160Z,97538.56
2023-05-15T15:58:29.060Z,97545.09
2023-05-15T16:00:33.870Z,97537.56
2023-05-15T16:02:42.144Z,97539.97
2023-05-15T16:04:47.226Z,97545.31
2023-05-15T16:06:52.126Z,97545.38
2023-05-15T16:08:56.829Z,97553.13
2023-05-15T16:11:04.449Z,97554.03
2023-05-15T16:13:09.416Z,97541.38
2023-05-15T16:15:23.078Z,97549.53
2023-05-15T16:17:28.587Z,97542.59
2023-05-15T16:19:33.524Z,97552.56
2023-05-15T16:21:39.163Z,97548.56
2023-05-15T16:23:44.196Z,97551.69
2023-05-15T16:25:48.917Z,97553.31
2023-05-15T16:27:56.510Z,97549.88
2023-05-15T16:30:01.464Z,97560.88
2023-05-15T16:32:06.360Z,97555.09
2023-05-15T16:34:11.856Z,97561.34
2023-05-15T16:36:16.832Z,97569.78
2023-05-15T16:38:23.020Z,97574.81
2023-05-15T16:40:27.989Z,97572.19
2023-05-15T16:42:32.907Z,97573.03
2023-05-15T16:44:40.545Z,97574.94
2023-05-15T16:46:45.539Z,97579.41
2023-05-15T16:48:50.526Z,97583.72
2023-05-15T16:50:55.605Z,97581.91
2023-05-15T16:53:00.577Z,97585.13
2023-05-15T16:55:05.305Z,97589.97
2023-05-15T16:57:10.266Z,97585.53
2023-05-15T16:59:15.311Z,97580.22
2023-05-15T17:01:22.961Z,97595.53
2023-05-15T17:03:28.187Z,97596.91
2023-05-15T17:05:33.210Z,97604.13
2023-05-15T17:07:38.708Z,97598.88
2023-05-15T17:09:44.650Z,97600.81
2023-05-15T17:11:49.679Z,97598.25
2023-05-15T17:13:54.608Z,97610.63
2023-05-15T17:15:59.606Z,97617.09
2023-05-15T17:18:07.338Z,97623.84
2023-05-15T17:20:14.118Z,97622.78
2023-05-15T17:22:19.084Z,97625.41
2023-05-15T17:24:24.011Z,97631.16
2023-05-15T17:26:29.031Z,97636.81
2023-05-15T17:28:35.879Z,97632.38
2023-05-15T17:30:42.523Z,97643.94
2023-05-15T17:32:47.493Z,97645.19
2023-05-15T17:34:55.006Z,97660.56
2023-05-15T17:37:00.005Z,97656.28
2023-05-15T17:39:05.048Z,97663.97
2023-05-15T17:41:10.174Z,97652.13
2023-05-15T17:43:15.031Z,97662.56
2023-05-15T17:45:20.196Z,97657.06
2023-05-15T17:47:24.968Z,97656.72
2023-05-15T17:49:30.273Z,97663.66
2023-05-15T17:51:37.870Z,97667.13
2023-05-15T17:53:43.842Z,97683.03
2023-05-15T17:55:48.895Z,97683.38
2023-05-15T17:57:53.729Z,97688.16
2023-05-15T17:59:58.612Z,97680.97
2023-05-15T18:02:04.125Z,97683.31
2023-05-15T18:04:09.315Z,97677.81
2023-05-15T18:06:14.856Z,97678.78
2023-05-15T18:08:22.414Z,97686.63
2023-05-15T18:10:27.596Z,97695.22
2023-05-15T18:12:32.188Z,97702.00
2023-05-15T18:14:38.787Z,97698.06
2023-05-15T18:16:45.270Z,97712.34
2023-05-15T18:18:52.298Z,97700.06
2023-05-15T18:20:57.362Z,97698.53
2023-05-15T18:23:02.152Z,97697.09
2023-05-15T18:25:10.368Z,97692.88
2023-05-15T18:27:15.327Z,97703.38
2023-05-15T18:29:20.210Z,97695.78
2023-05-15T18:31:25.176Z,97684.66
2023-05-15T18:33:30.121Z,97705.06
2023-05-15T18:35:35.138Z,97730.75
2023-05-15T18:37:40.039Z,97731.97
2023-05-15T18:39:45.550Z,97768.97
2023-05-15T18:41:54.228Z,97801.50
2023-05-15T18:43:59.176Z,97809.91
2023-05-15T18:46:04.128Z,97805.50
2023-05-15T18:48:10.778Z,97786.19
2023-05-15T18:50:16.443Z,97824.34
2023-05-15T18:52:21.687Z,97850.34
2023-05-15T18:54:26.941Z,97844.44
2023-05-15T18:56:31.958Z,97835.78
2023-05-15T18:58:40.003Z,97839.78
2023-05-15T19:00:45.704Z,97833.16
2023-05-15T19:02:50.798Z,97833.59
2023-05-15T19:04:56.003Z,97820.44
2023-05-15T19:07:03.849Z,97805.38
2023-05-15T19:09:09.672Z,97805.69
2023-05-15T19:11:14.586Z,97805.16
2023-05-15T19:13:19.546Z,97810.84
2023-05-15T19:15:28.120Z,97797.19
2023-05-15T19:17:33.885Z,97780.53
2023-05-15T19:19:40.109Z,97767.66
2023-05-15T19:21:45.034Z,97766.41
2023-05-15T19:23:49.933Z,97772.53
2023-05-15T19:25:54.958Z,97768.25
2023-05-15T19:27:59.850Z,97768.81
2023-05-15T19:30:06.227Z,97787.91
2023-05-15T19:32:13.780Z,97787.50
2023-05-15T19:34:18.920Z,97782.19
2023-05-15T19:36:24.142Z,97791.16
2023-05-15T19:38:29.206Z,97787.91
2023-05-15T19:40:35.293Z,97789.50
2023-05-15T19:42:40.399Z,97786.88
2023-05-15T19:44:45.311Z,97786.47
2023-05-15T19:46:51.012Z,97783.53
2023-05-15T19:48:59.159Z,97775.38
2023-05-15T19:51:04.132Z,97780.34
2023-05-15T19:53:09.062Z,97787.16
2023-05-15T19:55:14.109Z,97783.25
2023-05-15T19:57:19.119Z,97783.72
2023-05-15T19:59:23.851Z,97778.97
2023-05-15T20:01:29.024Z,97782.97
2023-05-15T20:03:35.598Z,97785.59
2023-05-15T20:05:44.950Z,97781.09
2023-05-15T20:07:50.260Z,97780.13
2023-05-15T20:09:55.184Z,97785.91
2023-05-15T20:12:00.125Z,97779.94
2023-05-15T20:14:05.138Z,97778.03
2023-05-15T20:16:12.821Z,97782.34
2023-05-15T20:18:18.225Z,97780.47
2023-05-15T20:20:23.333Z,97786.31
2023-05-15T20:22:31.653Z,97785.19
2023-05-15T20:24:36.621Z,97789.16
2023-05-15T20:26:42.000Z,97788.84
2023-05-15T20:28:47.094Z,97780.47
2023-05-15T20:30:52.575Z,97789.16
2023-05-15T20:32:57.624Z,97791.69
2023-05-15T20:35:03.467Z,97789.28
2023-05-15T20:37:09.251Z,97799.97
2023-05-15T20:39:17.584Z,97796.19
2023-05-15T20:41:23.338Z,97796.28
2023-05-15T20:43:28.342Z,97805.38
2023-05-15T20:45:34.492Z,97812.75
2023-05-15T20:47:40.633Z,97805.84
2023-05-15T20:49:46.142Z,97813.38
2023-05-15T20:51:51.591Z,97808.88
2023-05-15T20:53:56.615Z,97815.69
2023-05-15T20:56:04.157Z,97807.72
2023-05-15T20:58:09.138Z,97815.69
2023-05-15T21:00:15.571Z,97810.34
2023-05-15T21:02:20.656Z,97812.25
2023-05-15T21:04:25.712Z,97818.28
2023-05-15T21:06:31.185Z,97816.94
2023-05-15T21:08:36.158Z,97827.50
2023-05-15T21:10:41.090Z,97836.63
2023-05-15T21:12:48.579Z,97832.72
2023-05-15T21:14:53.484Z,97831.16
2023-05-15T21:16:58.715Z,97829.44
2023-05-15T21:19:04.261Z,97834.25
2023-05-15T21:21:09.535Z,97845.97
2023-05-15T21:23:14.602Z,97840.94
2023-05-15T21:25:19.765Z,97848.06
2023-05-15T21:27:24.451Z,97841.97
2023-05-15T21:29:32.204Z,97841.13
2023-05-15T21:31:37.351Z,97836.16
2023-05-15T21:33:42.688Z,97840.25
2023-05-15T21:35:48.896Z,97838.28
2023-05-15T21:37:53.868Z,97842.69
2023-05-15T21:39:58.813Z,97839.22
2023-05-15T21:42:03.790Z,97841.50
2023-05-15T21:44:08.714Z,97849.34
2023-05-15T21:46:16.309Z,97844.13
2023-05-15T21:48:21.346Z,97848.88
2023-05-15T21:50:26.386Z,97857.69
2023-05-15T21:52:31.197Z,97860.56
2023-05-15T21:54:36.132Z,97857.03
2023-05-15T21:56:41.379Z,97863.00
2023-05-15T21:58:45.980Z,97865.72
2023-05-15T22:00:51.366Z,97861.81
2023-05-15T22:02:58.946Z,97863.50
2023-05-15T22:05:04.038Z,97866.41
2023-05-15T22:07:08.990Z,97872.84
2023-05-15T22:09:13.952Z,97881.75
2023-05-15T22:11:18.837Z,97878.09
2023-05-15T22:13:23.870Z,97877.06
2023-05-15T22:15:28.763Z,97884.63
2023-05-15T22:17:36.848Z,97872.31
2023-05-15T22:19:45.933Z,97873.78
2023-05-15T22:21:50.879Z,97872.19
2023-05-15T22:23:55.858Z,97876.03
2023-05-15T22:26:01.154Z,97871.75
2023-05-15T22:28:05.819Z,97872.00
2023-05-15T22:30:12.045Z,97876.53
2023-05-15T22:32:16.942Z,97883.81
2023-05-15T22:34:22.031Z,97877.25
2023-05-15T22:36:31.162Z,97873.59
2023-05-15T22:38:36.136Z,97862.13
2023-05-15T22:40:41.302Z,97865.47
2023-05-15T22:42:50.297Z,97868.38
2023-05-15T22:44:57.470Z,97865.84
2023-05-15T22:47:02.406Z,97873.41
2023-05-15T22:49:09.418Z,97872.38
2023-05-15T22:51:16.386Z,97865.09
2023-05-15T22:53:23.913Z,97860.91
2023-05-15T22:55:28.905Z,97866.69
2023-05-15T22:57:33.834Z,97867.06
2023-05-15T22:59:39.929Z,97865.94
2023-05-15T23:01:45.002Z,97863.44
2023-05-15T23:03:49.750Z,97867.88
2023-05-15T23:05:54.762Z,97860.38
2023-05-15T23:07:59.518Z,97866.97
2023-05-15T23:10:07.761Z,97866.34
2023-05-15T23:12:12.796Z,97865.50
2023-05-15T23:14:17.882Z,97865.31
2023-05-15T23:16:22.821Z,97862.78
2023-05-15T23:18:27.784Z,97866.16
2023-05-15T23:20:32.745Z,97861.25
2023-05-15T23:22:37.657Z,97860.69
2023-05-15T23:24:44.401Z,97856.22
2023-05-15T23:26:51.886Z,97863.50
2023-05-15T23:28:56.879Z,97854.25
2023-05-15T23:31:01.872Z,97859.75
2023-05-15T23:33:06.884Z,97849.78
2023-05-15T23:35:12.793Z,97854.53
2023-05-15T23:37:17.696Z,97861.34
2023-05-15T23:39:22.651Z,97854.25
2023-05-15T23:41:27.712Z,97846.22
2023-05-15T23:43:39.549Z,97844.25
2023-05-15T23:45:44.472Z,97854.91
2023-05-15T23:47:49.454Z,97843.53
2023-05-15T23:49:54.493Z,97851.19
2023-05-15T23:51:59.407Z,97848.38
2023-05-15T23:54:04.370Z,97850.25
2023-05-15T23:56:10.086Z,97845.94
2023-05-15T23:58:15.024Z,97851.38
